createdAt,value
2023-03-02T00:02:41.716Z,100833.91
2023-03-02T00:05:49.218Z,100839.97
2023-03-02T00:08:56.887Z,100833.34
2023-03-02T00:12:00.186Z,100832.78
2023-03-02T00:15:08.660Z,100830.34
2023-03-02T00:18:13.233Z,100829.56
2023-03-02T00:21:17.540Z,100834.94
2023-03-02T00:24:25.475Z,100823.94
2023-03-02T00:27:30.282Z,100819.41
2023-03-02T00:30:34.802Z,100819.31
2023-03-02T00:33:38.500Z,100816.91
2023-03-02T00:36:44.742Z,100811.97
2023-03-02T00:39:51.047Z,100805.28
2023-03-02T00:42:53.852Z,100803.53
2023-03-02T00:45:57.638Z,100800.94
2023-03-02T00:49:06.658Z,100795.00
2023-03-02T00:52:09.440Z,100793.16
2023-03-02T00:55:12.741Z,100788.91
2023-03-02T00:58:17.466Z,100787.78
2023-03-02T01:01:21.171Z,100784.06
2023-03-02T01:04:28.068Z,100785.34
2023-03-02T01:07:35.143Z,100784.41
2023-03-02T01:10:39.550Z,100775.84
2023-03-02T01:13:49.215Z,100773.34
2023-03-02T01:16:52.712Z,100772.41
2023-03-02T01:19:58.587Z,100765.47
2023-03-02T01:23:03.821Z,100755.53
2023-03-02T01:26:07.441Z,100751.63
2023-03-02T01:29:16.034Z,100740.16
2023-03-02T01:32:19.773Z,100738.66
2023-03-02T01:35:24.309Z,100731.44
2023-03-02T01:38:29.069Z,100725.69
2023-03-02T01:41:35.051Z,100720.69
2023-03-02T01:44:45.712Z,100718.63
2023-03-02T01:47:50.568Z,100716.22
2023-03-02T01:50:54.251Z,100725.91
2023-03-02T01:54:01.814Z,100722.47
2023-03-02T01:57:06.629Z,100719.09
2023-03-02T02:00:12.779Z,100703.69
2023-03-02T02:03:23.962Z,100706.19
2023-03-02T02:06:39.854Z,100699.38
2023-03-02T02:09:46.736Z,100689.81
2023-03-02T02:13:04.481Z,100695.75
2023-03-02T02:16:14.451Z,100697.38
2023-03-02T02:19:28.906Z,100703.19
2023-03-02T02:22:54.290Z,100696.16
2023-03-02T02:25:56.565Z,100698.66
2023-03-02T02:29:02.014Z,100697.06
2023-03-02T02:32:16.776Z,100700.47
2023-03-02T02:35:32.986Z,100693.50
2023-03-02T02:38:38.513Z,100691.13
2023-03-02T02:41:42.439Z,100686.19
2023-03-02T02:44:47.079Z,100689.69
2023-03-02T02:47:52.703Z,100682.78
2023-03-02T02:51:04.138Z,100675.19
2023-03-02T02:54:06.327Z,100682.78
2023-03-02T02:57:12.902Z,100688.84
2023-03-02T03:00:18.069Z,100684.59
2023-03-02T03:03:33.650Z,100675.19
2023-03-02T03:06:45.869Z,100672.72
2023-03-02T03:09:58.532Z,100662.41
2023-03-02T03:13:04.939Z,100665.97
2023-03-02T03:16:15.205Z,100661.81
2023-03-02T03:19:25.149Z,100664.31
2023-03-02T03:22:35.736Z,100668.41
2023-03-02T03:25:40.927Z,100674.91
2023-03-02T03:28:48.852Z,100668.06
2023-03-02T03:31:57.635Z,100678.25
2023-03-02T03:35:09.067Z,100685.03
2023-03-02T03:38:18.605Z,100690.12
2023-03-02T03:41:29.484Z,100698.75
2023-03-02T03:44:34.207Z,100691.22
2023-03-02T03:47:37.298Z,100705.13
2023-03-02T03:50:40.976Z,100704.31
2023-03-02T03:53:45.238Z,100707.81
2023-03-02T03:56:55.790Z,100711.37
2023-03-02T04:00:02.287Z,100714.09
2023-03-02T04:03:08.204Z,100710.16
2023-03-02T04:06:20.329Z,100709.41
2023-03-02T04:09:25.282Z,100710.41
2023-03-02T04:12:35.607Z,100703.69
2023-03-02T04:15:39.356Z,100704.84
2023-03-02T04:18:47.736Z,100706.62
2023-03-02T04:21:57.060Z,100704.13
2023-03-02T04:25:07.817Z,100704.13
2023-03-02T04:28:10.307Z,100690.38
2023-03-02T04:31:16.720Z,100703.22
2023-03-02T04:34:22.925Z,100697.38
2023-03-02T04:37:32.096Z,100699.81
2023-03-02T04:40:36.005Z,100694.72
2023-03-02T04:43:44.835Z,100693.12
2023-03-02T04:46:49.559Z,100685.69
2023-03-02T04:50:10.601Z,100687.56
2023-03-02T04:53:15.121Z,100687.47
2023-03-02T04:56:26.148Z,100685.41
2023-03-02T04:59:31.335Z,100674.25
2023-03-02T05:02:34.485Z,100686.59
2023-03-02T05:05:37.963Z,100690.53
2023-03-02T05:08:46.121Z,100687.69
2023-03-02T05:12:00.587Z,100686.69
2023-03-02T05:15:06.979Z,100684.87
2023-03-02T05:18:21.265Z,100690.12
2023-03-02T05:21:29.713Z,100691.66
2023-03-02T05:24:39.013Z,100692.38
2023-03-02T05:27:46.551Z,100692.38
2023-03-02T05:30:50.248Z,100692.47
2023-03-02T05:33:55.954Z,100706.16
2023-03-02T05:37:07.077Z,100705.13
2023-03-02T05:40:19.128Z,100709.16
2023-03-02T05:43:22.476Z,100708.13
2023-03-02T05:46:26.026Z,100714.00
2023-03-02T05:49:33.882Z,100715.53
2023-03-02T05:52:43.318Z,100714.56
2023-03-02T05:55:48.362Z,100716.13
2023-03-02T05:59:03.941Z,100714.84
2023-03-02T06:02:17.769Z,100724.84
2023-03-02T06:05:26.503Z,100720.44
2023-03-02T06:08:31.750Z,100716.78
2023-03-02T06:11:40.875Z,100726.09
2023-03-02T06:14:43.837Z,100734.38
2023-03-02T06:17:47.877Z,100731.56
2023-03-02T06:20:55.483Z,100740.72
2023-03-02T06:23:58.775Z,100731.56
2023-03-02T06:27:06.473Z,100732.84
2023-03-02T06:30:14.678Z,100745.31
2023-03-02T06:33:19.514Z,100745.13
2023-03-02T06:36:26.011Z,100746.88
2023-03-02T06:39:32.199Z,100759.50
2023-03-02T06:42:40.671Z,100771.72
2023-03-02T06:45:46.071Z,100779.66
2023-03-02T06:48:49.902Z,100777.38
2023-03-02T06:51:57.651Z,100772.75
2023-03-02T06:55:03.480Z,100765.06
2023-03-02T06:58:08.515Z,100768.75
2023-03-02T07:01:16.757Z,100770.72
2023-03-02T07:04:24.949Z,100773.22
2023-03-02T07:07:29.960Z,100783.66
2023-03-02T07:10:34.122Z,100779.22
2023-03-02T07:13:41.905Z,100776.19
2023-03-02T07:16:47.625Z,100765.66
2023-03-02T07:19:51.104Z,100766.22
2023-03-02T07:22:55.256Z,100766.16
2023-03-02T07:26:03.080Z,100769.69
2023-03-02T07:29:06.434Z,100768.22
2023-03-02T07:32:12.469Z,100770.16
2023-03-02T07:35:20.219Z,100774.00
2023-03-02T07:38:26.824Z,100771.78
2023-03-02T07:41:34.026Z,100775.13
2023-03-02T07:44:37.096Z,100773.03
2023-03-02T07:47:40.042Z,100774.28
2023-03-02T07:50:46.619Z,100770.19
2023-03-02T07:53:49.528Z,100769.09
2023-03-02T07:56:52.956Z,100772.41
2023-03-02T07:59:59.069Z,100762.22
2023-03-02T08:03:01.922Z,100772.25
2023-03-02T08:06:07.342Z,100766.00
2023-03-02T08:09:10.506Z,100771.09
2023-03-02T08:12:14.772Z,100770.50
2023-03-02T08:15:21.710Z,100768.28
2023-03-02T08:18:25.228Z,100775.59
2023-03-02T08:21:32.612Z,100770.69
2023-03-02T08:24:42.654Z,100769.94
2023-03-02T08:27:47.288Z,100781.44
2023-03-02T08:31:05.523Z,100772.25
2023-03-02T08:34:10.470Z,100772.84
2023-03-02T08:37:22.496Z,100770.06
2023-03-02T08:40:30.394Z,100770.47
2023-03-02T08:43:34.934Z,100765.28
2023-03-02T08:46:37.683Z,100757.12
2023-03-02T08:49:51.434Z,100761.81
2023-03-02T08:52:54.039Z,100761.00
2023-03-02T08:56:01.516Z,100762.31
2023-03-02T08:59:09.696Z,100751.00
2023-03-02T09:02:15.369Z,100746.06
2023-03-02T09:05:20.514Z,100746.38
2023-03-02T09:08:25.235Z,100750.38
2023-03-02T09:11:27.708Z,100738.56
2023-03-02T09:14:33.886Z,100743.13
2023-03-02T09:17:44.682Z,100743.41
2023-03-02T09:20:53.889Z,100744.72
2023-03-02T09:24:00.481Z,100738.41
2023-03-02T09:27:09.747Z,100735.37
2023-03-02T09:30:15.152Z,100729.94
2023-03-02T09:33:18.733Z,100730.22
2023-03-02T09:36:23.491Z,100735.72
2023-03-02T09:39:27.194Z,100728.56
2023-03-02T09:42:43.012Z,100732.34
2023-03-02T09:45:53.221Z,100727.06
2023-03-02T09:48:57.678Z,100727.81
2023-03-02T09:52:16.095Z,100728.81
2023-03-02T09:55:26.842Z,100729.75
2023-03-02T09:58:35.662Z,100719.66
2023-03-02T10:01:46.822Z,100721.94
2023-03-02T10:04:53.631Z,100725.97
2023-03-02T10:07:59.442Z,100719.09
2023-03-02T10:11:14.924Z,100714.28
2023-03-02T10:14:27.311Z,100711.19
2023-03-02T10:17:38.304Z,100703.25
2023-03-02T10:20:48.362Z,100709.34
2023-03-02T10:23:56.958Z,100698.28
2023-03-02T10:27:18.526Z,100706.50
2023-03-02T10:30:37.909Z,100703.28
2023-03-02T10:33:44.962Z,100705.84
2023-03-02T10:36:48.618Z,100711.13
2023-03-02T10:39:52.843Z,100695.84
2023-03-02T10:42:58.799Z,100697.75
2023-03-02T10:46:05.688Z,100688.13
2023-03-02T10:49:41.160Z,100689.47
2023-03-02T10:52:59.968Z,100682.16
2023-03-02T10:56:05.834Z,100679.00
2023-03-02T10:59:34.532Z,100678.25
2023-03-02T11:06:06.412Z,100663.44
2023-03-02T11:09:15.149Z,100662.03
2023-03-02T11:12:19.867Z,100660.69
2023-03-02T11:15:28.703Z,100667.19
2023-03-02T11:18:50.507Z,100661.50
2023-03-02T11:21:59.704Z,100659.09
2023-03-02T11:25:09.492Z,100651.72
2023-03-02T11:28:36.196Z,100647.81
2023-03-02T11:31:43.649Z,100642.44
2023-03-02T11:35:00.025Z,100636.97
2023-03-02T11:38:27.985Z,100638.41
2023-03-02T11:41:38.329Z,100638.91
2023-03-02T11:44:40.989Z,100632.03
2023-03-02T11:47:54.275Z,100621.66
2023-03-02T11:51:01.324Z,100620.81
2023-03-02T11:54:06.983Z,100618.94
2023-03-02T11:57:32.707Z,100612.03
2023-03-02T12:00:40.412Z,100625.62
2023-03-02T12:03:46.996Z,100611.56
2023-03-02T12:06:52.862Z,100608.44
2023-03-02T12:10:10.566Z,100607.63
2023-03-02T12:13:22.053Z,100605.59
2023-03-02T12:16:37.336Z,100602.72
2023-03-02T12:19:41.855Z,100599.78
2023-03-02T12:22:45.180Z,100605.75
2023-03-02T12:26:04.055Z,100594.16
2023-03-02T12:29:09.643Z,100592.25
2023-03-02T12:32:16.018Z,100598.22
2023-03-02T12:35:21.030Z,100592.75
2023-03-02T12:38:24.084Z,100591.22
2023-03-02T12:41:42.294Z,100586.78
2023-03-02T12:44:58.973Z,100577.88
2023-03-02T12:48:21.992Z,100587.28
2023-03-02T12:51:27.355Z,100575.34
2023-03-02T12:54:32.179Z,100571.06
2023-03-02T12:57:39.780Z,100571.53
2023-03-02T13:00:51.182Z,100558.53
2023-03-02T13:03:55.652Z,100557.97
2023-03-02T13:06:58.807Z,100551.06
2023-03-02T13:10:13.662Z,100548.19
2023-03-02T13:13:24.472Z,100542.13
2023-03-02T13:16:39.455Z,100547.38
2023-03-02T13:19:44.860Z,100538.44
2023-03-02T13:22:54.296Z,100537.47
2023-03-02T13:25:59.838Z,100539.63
2023-03-02T13:29:06.520Z,100536.03
2023-03-02T13:32:21.124Z,100532.94
2023-03-02T13:35:31.451Z,100523.41
2023-03-02T13:38:39.350Z,100528.03
2023-03-02T13:41:53.405Z,100516.38
2023-03-02T13:45:01.423Z,100515.81
2023-03-02T13:48:15.687Z,100513.91
2023-03-02T13:51:19.600Z,100500.78
2023-03-02T13:54:30.166Z,100500.31
2023-03-02T13:57:33.956Z,100503.88
2023-03-02T14:00:37.219Z,100500.78
2023-03-02T14:03:40.450Z,100494.63
2023-03-02T14:06:43.350Z,100489.25
2023-03-02T14:09:47.615Z,100485.56
2023-03-02T14:12:54.971Z,100474.50
2023-03-02T14:16:00.380Z,100470.47
2023-03-02T14:19:08.512Z,100466.28
2023-03-02T14:22:12.849Z,100463.31
2023-03-02T14:25:20.077Z,100468.44
2023-03-02T14:28:29.594Z,100461.44
2023-03-02T14:31:35.214Z,100462.59
2023-03-02T14:34:39.955Z,100458.44
2023-03-02T14:37:49.380Z,100462.12
2023-03-02T14:40:52.375Z,100462.84
2023-03-02T14:43:56.820Z,100457.84
2023-03-02T14:47:00.850Z,100454.41
2023-03-02T14:50:05.872Z,100456.53
2023-03-02T14:53:14.300Z,100447.00
2023-03-02T14:56:20.001Z,100457.72
2023-03-02T14:59:26.123Z,100452.50
2023-03-02T15:02:30.883Z,100445.59
2023-03-02T15:05:34.180Z,100440.81
2023-03-02T15:08:39.599Z,100443.75
2023-03-02T15:11:43.532Z,100444.13
2023-03-02T15:14:46.402Z,100445.56
2023-03-02T15:17:50.204Z,100445.19
2023-03-02T15:20:53.688Z,100444.25
2023-03-02T15:23:56.938Z,100440.06
2023-03-02T15:27:05.122Z,100444.69
2023-03-02T15:30:08.841Z,100445.03
2023-03-02T15:33:12.150Z,100444.91
2023-03-02T15:36:19.421Z,100446.78
2023-03-02T15:39:30.401Z,100442.62
2023-03-02T15:42:36.456Z,100449.12
2023-03-02T15:45:50.116Z,100450.41
2023-03-02T15:48:54.746Z,100458.81
2023-03-02T15:52:01.214Z,100451.03
2023-03-02T15:55:06.874Z,100452.31
2023-03-02T15:58:10.250Z,100438.84
2023-03-02T16:01:21.461Z,100450.69
2023-03-02T16:04:26.164Z,100464.41
2023-03-02T16:07:30.099Z,100460.78
2023-03-02T16:10:33.575Z,100465.00
2023-03-02T16:13:37.598Z,100457.72
2023-03-02T16:16:43.831Z,100461.69
2023-03-02T16:19:54.156Z,100453.38
2023-03-02T16:23:11.366Z,100458.59
2023-03-02T16:26:20.222Z,100460.47
2023-03-02T16:29:26.378Z,100463.38
2023-03-02T16:32:30.799Z,100464.50
2023-03-02T16:35:35.941Z,100462.28
2023-03-02T16:38:38.355Z,100465.34
2023-03-02T16:41:43.137Z,100461.84
2023-03-02T16:44:48.272Z,100471.56
2023-03-02T16:47:54.968Z,100469.28
2023-03-02T16:50:59.668Z,100470.78
2023-03-02T16:54:04.824Z,100476.28
2023-03-02T16:57:14.672Z,100479.66
2023-03-02T17:00:18.312Z,100484.50
2023-03-02T17:03:23.318Z,100492.50
2023-03-02T17:06:30.263Z,100492.31
2023-03-02T17:09:38.517Z,100499.66
2023-03-02T17:12:41.922Z,100499.84
2023-03-02T17:15:45.236Z,100497.06
2023-03-02T17:18:48.624Z,100495.31
2023-03-02T17:21:52.936Z,100497.91
2023-03-02T17:24:56.541Z,100507.94
2023-03-02T17:28:00.339Z,100510.69
2023-03-02T17:31:04.554Z,100508.31
2023-03-02T17:34:09.735Z,100508.13
2023-03-02T17:37:13.271Z,100517.91
2023-03-02T17:40:18.358Z,100516.56
2023-03-02T17:43:22.327Z,100518.69
2023-03-02T17:46:27.359Z,100519.38
2023-03-02T17:49:34.699Z,100508.84
2023-03-02T17:52:38.932Z,100516.34
2023-03-02T17:55:42.936Z,100514.50
2023-03-02T17:58:54.025Z,100518.19
2023-03-02T18:02:00.203Z,100513.50
2023-03-02T18:05:04.443Z,100511.50
2023-03-02T18:08:10.680Z,100510.94
2023-03-02T18:11:18.918Z,100516.44
2023-03-02T18:14:22.906Z,100519.19
2023-03-02T18:17:29.094Z,100515.09
2023-03-02T18:20:34.415Z,100513.44
2023-03-02T18:30:25.359Z,100513.84
2023-03-02T18:33:28.663Z,100512.06
2023-03-02T18:36:33.184Z,100520.72
2023-03-02T18:39:38.459Z,100512.34
2023-03-02T18:42:42.788Z,100520.72
2023-03-02T18:45:48.103Z,100515.00
2023-03-02T18:48:53.248Z,100516.50
2023-03-02T18:51:57.488Z,100510.00
2023-03-02T18:55:04.276Z,100507.97
2023-03-02T18:58:10.197Z,100510.97
2023-03-02T19:01:14.700Z,100517.75
2023-03-02T19:04:18.230Z,100514.78
2023-03-02T19:07:22.090Z,100514.16
2023-03-02T19:10:26.263Z,100512.88
2023-03-02T19:13:30.650Z,100518.22
2023-03-02T19:16:38.553Z,100513.25
2023-03-02T19:19:43.907Z,100515.34
2023-03-02T19:22:46.830Z,100514.56
2023-03-02T19:25:52.706Z,100518.75
2023-03-02T19:28:56.709Z,100514.72
2023-03-02T19:32:00.043Z,100515.88
2023-03-02T19:35:04.132Z,100524.06
2023-03-02T19:38:09.271Z,100521.63
2023-03-02T19:41:17.678Z,100516.81
2023-03-02T19:44:22.186Z,100524.87
2023-03-02T19:47:26.733Z,100523.34
2023-03-02T19:50:32.487Z,100528.87
2023-03-02T19:53:37.118Z,100527.50
2023-03-02T19:56:46.636Z,100536.31
2023-03-02T19:59:49.535Z,100521.28
2023-03-02T20:02:53.472Z,100528.56
2023-03-02T20:06:00.117Z,100523.19
2023-03-02T20:09:06.612Z,100521.50
2023-03-02T20:12:12.716Z,100517.59
2023-03-02T20:15:17.920Z,100516.97
2023-03-02T20:18:23.400Z,100528.44
2023-03-02T20:21:27.962Z,100524.38
2023-03-02T20:24:31.004Z,100523.75
2023-03-02T20:27:37.479Z,100529.19
2023-03-02T20:30:47.143Z,100536.13
2023-03-02T20:33:53.799Z,100532.63
2023-03-02T20:37:01.082Z,100537.50
2023-03-02T20:40:10.328Z,100539.84
2023-03-02T20:43:17.410Z,100539.06
2023-03-02T20:46:29.998Z,100536.13
2023-03-02T20:49:34.885Z,100540.66
2023-03-02T20:52:39.931Z,100540.31
2023-03-02T20:55:43.110Z,100541.91
2023-03-02T20:58:47.932Z,100539.44
2023-03-02T21:01:52.391Z,100532.81
2023-03-02T21:04:57.751Z,100521.97
2023-03-02T21:08:01.098Z,100519.94
2023-03-02T21:11:09.562Z,100523.56
2023-03-02T21:14:15.581Z,100516.78
2023-03-02T21:17:18.341Z,100516.25
2023-03-02T21:20:27.022Z,100509.66
2023-03-02T21:23:32.131Z,100516.78
2023-03-02T21:26:37.712Z,100503.34
2023-03-02T21:29:45.996Z,100502.47
2023-03-02T21:32:51.674Z,100509.09
2023-03-02T21:35:54.570Z,100507.03
2023-03-02T21:39:03.373Z,100508.06
2023-03-02T21:42:06.050Z,100498.88
2023-03-02T21:45:09.395Z,100502.44
2023-03-02T21:48:14.262Z,100502.50
2023-03-02T21:51:17.408Z,100502.50
2023-03-02T21:54:19.880Z,100500.16
2023-03-02T21:57:23.068Z,100509.34
2023-03-02T22:00:28.103Z,100502.63
2023-03-02T22:03:34.814Z,100494.81
2023-03-02T22:06:39.509Z,100509.81
2023-03-02T22:09:43.577Z,100492.81
2023-03-02T22:12:49.079Z,100504.22
2023-03-02T22:15:58.253Z,100496.78
2023-03-02T22:19:05.420Z,100498.75
2023-03-02T22:22:15.568Z,100490.28
2023-03-02T22:25:19.984Z,100487.97
2023-03-02T22:28:23.629Z,100489.75
2023-03-02T22:31:27.018Z,100488.97
2023-03-02T22:34:31.114Z,100491.72
2023-03-02T22:37:36.175Z,100492.88
2023-03-02T22:40:44.681Z,100493.03
2023-03-02T22:43:48.494Z,100493.09
2023-03-02T22:46:53.381Z,100493.75
2023-03-02T22:49:58.360Z,100491.84
2023-03-02T22:53:21.633Z,100489.34
2023-03-02T22:56:36.489Z,100489.56
2023-03-02T22:59:40.815Z,100486.22
2023-03-02T23:02:48.720Z,100485.69
2023-03-02T23:05:54.784Z,100483.97
2023-03-02T23:09:02.715Z,100487.19
2023-03-02T23:12:17.049Z,100482.03
2023-03-02T23:15:27.310Z,100483.09
2023-03-02T23:18:32.354Z,100478.69
2023-03-02T23:21:41.894Z,100483.72
2023-03-02T23:24:50.411Z,100485.56
2023-03-02T23:27:54.328Z,100478.22
2023-03-02T23:31:02.749Z,100471.31
2023-03-02T23:34:10.754Z,100463.91
2023-03-02T23:37:14.033Z,100468.38
2023-03-02T23:40:17.654Z,100468.09
2023-03-02T23:43:21.017Z,100461.41
2023-03-02T23:46:29.005Z,100459.00
2023-03-02T23:49:31.722Z,100463.31
2023-03-02T23:52:35.911Z,100460.03
2023-03-02T23:55:41.416Z,100465.28
2023-03-02T23:58:44.395Z,100461.94
